sensor_id;sensor_type;location;lat;lon;timestamp;P1;durP1;ratioP1;P2;durP2;ratioP2
7289;SDS011;63176;52.678;13.250;2023-02-11T00:01:05;26.20;;;12.40;;
7289;SDS011;63176;52.678;13.250;2023-02-11T00:03:44;21.13;;;10.05;;
7289;SDS011;63176;52.678;13.250;2023-02-11T00:06:10;26.67;;;11.70;;
7289;SDS011;63176;52.678;13.250;2023-02-11T00:08:36;21.03;;;11.10;;
7289;SDS011;63176;52.678;13.250;2023-02-11T00:11:02;30.50;;;10.98;;
7289;SDS011;63176;52.678;13.250;2023-02-11T00:13:28;21.93;;;10.47;;
7289;SDS011;63176;52.678;13.250;2023-02-11T00:15:54;20.17;;;10.27;;
7289;SDS011;63176;52.678;13.250;2023-02-11T00:18:20;27.13;;;11.50;;
7289;SDS011;63176;52.678;13.250;2023-02-11T00:20:46;28.70;;;11.97;;
7289;SDS011;63176;52.678;13.250;2023-02-11T00:23:12;22.10;;;10.70;;
7289;SDS011;63176;52.678;13.250;2023-02-11T00:25:41;20.55;;;11.45;;
7289;SDS011;63176;52.678;13.250;2023-02-11T00:28:08;24.77;;;10.30;;
7289;SDS011;63176;52.678;13.250;2023-02-11T00:30:35;18.83;;;10.48;;
7289;SDS011;63176;52.678;13.250;2023-02-11T00:33:01;20.45;;;11.13;;
7289;SDS011;63176;52.678;13.250;2023-02-11T00:35:27;23.93;;;11.17;;
7289;SDS011;63176;52.678;13.250;2023-02-11T00:37:53;25.20;;;12.05;;
7289;SDS011;63176;52.678;13.250;2023-02-11T00:40:19;23.38;;;11.43;;
7289;SDS011;63176;52.678;13.250;2023-02-11T00:42:45;24.83;;;11.77;;
7289;SDS011;63176;52.678;13.250;2023-02-11T00:45:11;30.40;;;12.33;;
7289;SDS011;63176;52.678;13.250;2023-02-11T00:47:36;21.60;;;11.20;;
7289;SDS011;63176;52.678;13.250;2023-02-11T00:50:02;24.13;;;10.37;;
7289;SDS011;63176;52.678;13.250;2023-02-11T00:52:30;29.40;;;12.77;;
7289;SDS011;63176;52.678;13.250;2023-02-11T00:54:56;26.55;;;12.93;;
7289;SDS011;63176;52.678;13.250;2023-02-11T00:57:21;22.10;;;11.37;;
7289;SDS011;63176;52.678;13.250;2023-02-11T00:59:47;18.07;;;10.27;;
7289;SDS011;63176;52.678;13.250;2023-02-11T01:02:13;22.80;;;11.47;;
7289;SDS011;63176;52.678;13.250;2023-02-11T01:04:38;25.13;;;11.27;;
7289;SDS011;63176;52.678;13.250;2023-02-11T01:07:04;23.50;;;11.50;;
7289;SDS011;63176;52.678;13.250;2023-02-11T01:09:30;27.73;;;13.03;;
7289;SDS011;63176;52.678;13.250;2023-02-11T01:11:55;23.43;;;11.43;;
7289;SDS011;63176;52.678;13.250;2023-02-11T01:14:21;27.43;;;11.60;;
7289;SDS011;63176;52.678;13.250;2023-02-11T01:16:47;22.77;;;12.30;;
7289;SDS011;63176;52.678;13.250;2023-02-11T01:19:12;21.90;;;11.93;;
7289;SDS011;63176;52.678;13.250;2023-02-11T01:21:38;25.97;;;12.17;;
7289;SDS011;63176;52.678;13.250;2023-02-11T01:24:04;29.50;;;12.87;;
7289;SDS011;63176;52.678;13.250;2023-02-11T01:26:30;26.38;;;11.88;;
7289;SDS011;63176;52.678;13.250;2023-02-11T01:28:55;22.17;;;10.03;;
7289;SDS011;63176;52.678;13.250;2023-02-11T01:31:21;27.80;;;12.90;;
7289;SDS011;63176;52.678;13.250;2023-02-11T01:33:46;20.83;;;12.70;;
7289;SDS011;63176;52.678;13.250;2023-02-11T01:36:13;27.73;;;12.70;;
7289;SDS011;63176;52.678;13.250;2023-02-11T01:38:38;26.93;;;12.13;;
7289;SDS011;63176;52.678;13.250;2023-02-11T01:41:06;23.92;;;10.90;;
7289;SDS011;63176;52.678;13.250;2023-02-11T01:43:38;24.42;;;11.88;;
7289;SDS011;63176;52.678;13.250;2023-02-11T01:48:57;25.13;;;12.43;;
7289;SDS011;63176;52.678;13.250;2023-02-11T01:51:32;27.33;;;11.05;;
7289;SDS011;63176;52.678;13.250;2023-02-11T01:54:08;21.85;;;12.02;;
7289;SDS011;63176;52.678;13.250;2023-02-11T01:56:57;26.15;;;12.57;;
7289;SDS011;63176;52.678;13.250;2023-02-11T01:59:47;20.33;;;10.77;;
7289;SDS011;63176;52.678;13.250;2023-02-11T02:02:20;20.80;;;11.48;;
7289;SDS011;63176;52.678;13.250;2023-02-11T02:04:52;25.40;;;11.25;;
7289;SDS011;63176;52.678;13.250;2023-02-11T02:07:46;21.98;;;10.68;;
7289;SDS011;63176;52.678;13.250;2023-02-11T02:10:23;19.27;;;9.95;;
7289;SDS011;63176;52.678;13.250;2023-02-11T02:12:51;24.92;;;11.40;;
7289;SDS011;63176;52.678;13.250;2023-02-11T02:15:18;25.40;;;12.33;;
7289;SDS011;63176;52.678;13.250;2023-02-11T02:20:54;23.15;;;12.23;;
7289;SDS011;63176;52.678;13.250;2023-02-11T02:34:22;23.83;;;11.95;;
7289;SDS011;63176;52.678;13.250;2023-02-11T02:39:32;22.13;;;11.45;;
7289;SDS011;63176;52.678;13.250;2023-02-11T02:42:01;21.98;;;11.95;;
7289;SDS011;63176;52.678;13.250;2023-02-11T02:44:27;22.75;;;11.73;;
7289;SDS011;63176;52.678;13.250;2023-02-11T02:46:53;24.10;;;11.05;;
7289;SDS011;63176;52.678;13.250;2023-02-11T02:49:19;25.23;;;12.67;;
7289;SDS011;63176;52.678;13.250;2023-02-11T02:51:57;24.53;;;12.23;;
7289;SDS011;63176;52.678;13.250;2023-02-11T03:00:26;23.58;;;12.52;;
7289;SDS011;63176;52.678;13.250;2023-02-11T03:03:15;22.67;;;12.43;;
7289;SDS011;63176;52.678;13.250;2023-02-11T03:06:04;24.13;;;12.23;;
7289;SDS011;63176;52.678;13.250;2023-02-11T03:11:18;24.30;;;11.48;;
7289;SDS011;63176;52.678;13.250;2023-02-11T03:13:45;23.08;;;11.98;;
7289;SDS011;63176;52.678;13.250;2023-02-11T03:16:14;24.38;;;12.43;;
7289;SDS011;63176;52.678;13.250;2023-02-11T03:18:43;38.90;;;13.93;;
7289;SDS011;63176;52.678;13.250;2023-02-11T03:21:14;27.80;;;12.15;;
7289;SDS011;63176;52.678;13.250;2023-02-11T03:23:52;26.13;;;12.15;;
7289;SDS011;63176;52.678;13.250;2023-02-11T03:29:01;25.60;;;12.07;;
7289;SDS011;63176;52.678;13.250;2023-02-11T03:36:50;28.50;;;12.77;;
7289;SDS011;63176;52.678;13.250;2023-02-11T03:39:30;23.40;;;11.50;;
7289;SDS011;63176;52.678;13.250;2023-02-11T03:42:00;18.98;;;10.70;;
7289;SDS011;63176;52.678;13.250;2023-02-11T03:44:29;22.58;;;11.73;;
7289;SDS011;63176;52.678;13.250;2023-02-11T03:46:58;25.70;;;13.30;;
7289;SDS011;63176;52.678;13.250;2023-02-11T03:49:27;25.50;;;13.20;;
7289;SDS011;63176;52.678;13.250;2023-02-11T03:51:54;26.65;;;14.27;;
7289;SDS011;63176;52.678;13.250;2023-02-11T03:54:26;22.80;;;12.75;;
7289;SDS011;63176;52.678;13.250;2023-02-11T03:56:54;26.80;;;12.43;;
7289;SDS011;63176;52.678;13.250;2023-02-11T03:59:23;22.63;;;11.82;;
7289;SDS011;63176;52.678;13.250;2023-02-11T04:01:49;23.40;;;13.48;;
7289;SDS011;63176;52.678;13.250;2023-02-11T04:04:14;20.77;;;11.60;;
7289;SDS011;63176;52.678;13.250;2023-02-11T04:06:40;25.25;;;12.23;;
7289;SDS011;63176;52.678;13.250;2023-02-11T04:09:07;27.75;;;12.50;;
7289;SDS011;63176;52.678;13.250;2023-02-11T04:11:33;27.55;;;12.65;;
7289;SDS011;63176;52.678;13.250;2023-02-11T04:13:58;22.37;;;11.73;;
7289;SDS011;63176;52.678;13.250;2023-02-11T04:16:24;24.27;;;12.40;;
7289;SDS011;63176;52.678;13.250;2023-02-11T04:18:50;28.77;;;14.27;;
7289;SDS011;63176;52.678;13.250;2023-02-11T04:21:15;24.70;;;13.07;;
7289;SDS011;63176;52.678;13.250;2023-02-11T04:23:41;26.73;;;12.90;;
7289;SDS011;63176;52.678;13.250;2023-02-11T04:26:07;27.53;;;14.03;;
7289;SDS011;63176;52.678;13.250;2023-02-11T04:28:32;21.47;;;12.73;;
7289;SDS011;63176;52.678;13.250;2023-02-11T04:30:58;35.35;;;14.75;;
7289;SDS011;63176;52.678;13.250;2023-02-11T04:33:24;26.67;;;13.03;;
7289;SDS011;63176;52.678;13.250;2023-02-11T04:35:50;28.60;;;12.53;;
7289;SDS011;63176;52.678;13.250;2023-02-11T04:38:16;27.63;;;14.23;;
7289;SDS011;63176;52.678;13.250;2023-02-11T04:40:41;23.73;;;12.73;;
7289;SDS011;63176;52.678;13.250;2023-02-11T04:43:07;32.43;;;12.83;;
7289;SDS011;63176;52.678;13.250;2023-02-11T04:45:33;24.83;;;12.80;;
7289;SDS011;63176;52.678;13.250;2023-02-11T04:48:00;26.80;;;14.10;;
7289;SDS011;63176;52.678;13.250;2023-02-11T04:50:27;35.80;;;15.00;;
7289;SDS011;63176;52.678;13.250;2023-02-11T04:52:52;28.57;;;13.43;;
7289;SDS011;63176;52.678;13.250;2023-02-11T04:55:18;29.00;;;14.47;;
7289;SDS011;63176;52.678;13.250;2023-02-11T04:57:43;25.37;;;12.77;;
7289;SDS011;63176;52.678;13.250;2023-02-11T05:00:09;31.83;;;12.97;;
7289;SDS011;63176;52.678;13.250;2023-02-11T05:02:35;28.23;;;14.25;;
7289;SDS011;63176;52.678;13.250;2023-02-11T05:05:00;34.10;;;14.90;;
7289;SDS011;63176;52.678;13.250;2023-02-11T05:07:26;23.70;;;14.27;;
7289;SDS011;63176;52.678;13.250;2023-02-11T05:09:52;28.83;;;13.63;;
7289;SDS011;63176;52.678;13.250;2023-02-11T05:12:17;31.10;;;15.03;;
7289;SDS011;63176;52.678;13.250;2023-02-11T05:14:43;27.63;;;12.70;;
7289;SDS011;63176;52.678;13.250;2023-02-11T05:17:09;29.93;;;14.47;;
7289;SDS011;63176;52.678;13.250;2023-02-11T05:19:34;34.73;;;15.63;;
7289;SDS011;63176;52.678;13.250;2023-02-11T05:22:00;32.70;;;15.60;;
7289;SDS011;63176;52.678;13.250;2023-02-11T05:24:25;27.57;;;14.47;;
7289;SDS011;63176;52.678;13.250;2023-02-11T05:26:51;33.07;;;15.20;;
7289;SDS011;63176;52.678;13.250;2023-02-11T05:29:16;27.17;;;13.90;;
7289;SDS011;63176;52.678;13.250;2023-02-11T05:31:42;32.20;;;16.90;;
7289;SDS011;63176;52.678;13.250;2023-02-11T05:34:08;30.43;;;15.03;;
7289;SDS011;63176;52.678;13.250;2023-02-11T05:36:34;33.70;;;15.60;;
7289;SDS011;63176;52.678;13.250;2023-02-11T05:38:59;32.70;;;15.13;;
7289;SDS011;63176;52.678;13.250;2023-02-11T05:41:25;31.57;;;16.70;;
7289;SDS011;63176;52.678;13.250;2023-02-11T05:43:50;30.53;;;15.63;;
7289;SDS011;63176;52.678;13.250;2023-02-11T05:46:16;33.07;;;15.23;;
7289;SDS011;63176;52.678;13.250;2023-02-11T05:48:42;32.57;;;15.47;;
7289;SDS011;63176;52.678;13.250;2023-02-11T05:51:08;38.80;;;16.40;;
7289;SDS011;63176;52.678;13.250;2023-02-11T05:53:33;31.90;;;15.30;;
7289;SDS011;63176;52.678;13.250;2023-02-11T05:55:59;36.93;;;15.77;;
7289;SDS011;63176;52.678;13.250;2023-02-11T05:58:25;30.57;;;17.53;;
7289;SDS011;63176;52.678;13.250;2023-02-11T06:00:51;33.80;;;16.73;;
7289;SDS011;63176;52.678;13.250;2023-02-11T06:03:17;34.20;;;15.67;;
7289;SDS011;63176;52.678;13.250;2023-02-11T06:05:43;31.43;;;15.13;;
7289;SDS011;63176;52.678;13.250;2023-02-11T06:08:09;28.42;;;13.55;;
7289;SDS011;63176;52.678;13.250;2023-02-11T06:10:35;36.10;;;16.38;;
7289;SDS011;63176;52.678;13.250;2023-02-11T06:13:01;33.55;;;16.50;;
7289;SDS011;63176;52.678;13.250;2023-02-11T06:15:27;38.78;;;16.60;;
7289;SDS011;63176;52.678;13.250;2023-02-11T06:17:53;32.17;;;15.53;;
7289;SDS011;63176;52.678;13.250;2023-02-11T06:20:19;35.43;;;17.67;;
7289;SDS011;63176;52.678;13.250;2023-02-11T06:22:44;35.57;;;15.30;;
7289;SDS011;63176;52.678;13.250;2023-02-11T06:25:10;35.23;;;17.17;;
7289;SDS011;63176;52.678;13.250;2023-02-11T06:27:36;31.67;;;15.18;;
7289;SDS011;63176;52.678;13.250;2023-02-11T06:30:03;30.90;;;16.50;;
7289;SDS011;63176;52.678;13.250;2023-02-11T06:32:29;36.65;;;17.23;;
7289;SDS011;63176;52.678;13.250;2023-02-11T06:34:55;31.07;;;16.00;;
7289;SDS011;63176;52.678;13.250;2023-02-11T06:37:20;35.90;;;16.83;;
7289;SDS011;63176;52.678;13.250;2023-02-11T06:39:46;37.07;;;16.73;;
7289;SDS011;63176;52.678;13.250;2023-02-11T06:42:12;36.07;;;17.73;;
7289;SDS011;63176;52.678;13.250;2023-02-11T06:44:37;35.23;;;16.67;;
7289;SDS011;63176;52.678;13.250;2023-02-11T06:47:03;23.80;;;12.00;;
7289;SDS011;63176;52.678;13.250;2023-02-11T06:49:29;29.10;;;15.60;;
7289;SDS011;63176;52.678;13.250;2023-02-11T06:51:54;35.83;;;17.00;;
7289;SDS011;63176;52.678;13.250;2023-02-11T06:54:20;39.57;;;17.23;;
7289;SDS011;63176;52.678;13.250;2023-02-11T06:56:46;34.17;;;17.67;;
7289;SDS011;63176;52.678;13.250;2023-02-11T06:59:14;41.07;;;16.43;;
7289;SDS011;63176;52.678;13.250;2023-02-11T07:01:41;41.70;;;17.40;;
7289;SDS011;63176;52.678;13.250;2023-02-11T07:04:07;42.20;;;17.98;;
7289;SDS011;63176;52.678;13.250;2023-02-11T07:06:32;36.90;;;15.70;;
7289;SDS011;63176;52.678;13.250;2023-02-11T07:08:58;32.53;;;16.03;;
7289;SDS011;63176;52.678;13.250;2023-02-11T07:11:25;41.97;;;18.20;;
7289;SDS011;63176;52.678;13.250;2023-02-11T07:13:53;41.28;;;17.25;;
7289;SDS011;63176;52.678;13.250;2023-02-11T07:16:20;46.53;;;18.75;;
7289;SDS011;63176;52.678;13.250;2023-02-11T07:18:47;42.90;;;19.57;;
7289;SDS011;63176;52.678;13.250;2023-02-11T07:21:14;34.80;;;16.45;;
7289;SDS011;63176;52.678;13.250;2023-02-11T07:23:41;34.97;;;18.45;;
7289;SDS011;63176;52.678;13.250;2023-02-11T07:26:07;41.80;;;17.30;;
7289;SDS011;63176;52.678;13.250;2023-02-11T07:28:38;40.53;;;17.75;;
7289;SDS011;63176;52.678;13.250;2023-02-11T07:31:08;34.50;;;17.85;;
7289;SDS011;63176;52.678;13.250;2023-02-11T07:33:44;42.05;;;18.55;;
7289;SDS011;63176;52.678;13.250;2023-02-11T07:36:10;38.87;;;18.23;;
7289;SDS011;63176;52.678;13.250;2023-02-11T07:38:37;39.40;;;17.38;;
7289;SDS011;63176;52.678;13.250;2023-02-11T07:41:07;35.87;;;18.23;;
7289;SDS011;63176;52.678;13.250;2023-02-11T07:43:35;45.83;;;18.83;;
7289;SDS011;63176;52.678;13.250;2023-02-11T07:46:02;39.80;;;17.70;;
7289;SDS011;63176;52.678;13.250;2023-02-11T07:48:29;38.00;;;18.95;;
7289;SDS011;63176;52.678;13.250;2023-02-11T07:50:55;42.27;;;19.50;;
7289;SDS011;63176;52.678;13.250;2023-02-11T07:53:49;39.72;;;16.60;;
7289;SDS011;63176;52.678;13.250;2023-02-11T07:56:16;39.83;;;18.30;;
7289;SDS011;63176;52.678;13.250;2023-02-11T07:58:43;38.42;;;17.33;;
7289;SDS011;63176;52.678;13.250;2023-02-11T08:01:10;41.70;;;18.10;;
7289;SDS011;63176;52.678;13.250;2023-02-11T08:03:38;39.35;;;16.95;;
7289;SDS011;63176;52.678;13.250;2023-02-11T08:06:07;37.05;;;18.10;;
7289;SDS011;63176;52.678;13.250;2023-02-11T08:08:34;42.97;;;18.23;;
7289;SDS011;63176;52.678;13.250;2023-02-11T08:11:05;42.63;;;17.70;;
7289;SDS011;63176;52.678;13.250;2023-02-11T08:13:34;39.50;;;16.85;;
7289;SDS011;63176;52.678;13.250;2023-02-11T08:16:01;38.38;;;17.58;;
7289;SDS011;63176;52.678;13.250;2023-02-11T08:18:27;31.45;;;16.33;;
7289;SDS011;63176;52.678;13.250;2023-02-11T08:20:54;36.20;;;18.63;;
7289;SDS011;63176;52.678;13.250;2023-02-11T08:23:19;39.73;;;18.33;;
7289;SDS011;63176;52.678;13.250;2023-02-11T08:25:45;47.50;;;19.10;;
7289;SDS011;63176;52.678;13.250;2023-02-11T08:28:10;39.23;;;17.40;;
7289;SDS011;63176;52.678;13.250;2023-02-11T08:30:36;39.10;;;17.50;;
7289;SDS011;63176;52.678;13.250;2023-02-11T08:33:02;44.77;;;18.27;;
7289;SDS011;63176;52.678;13.250;2023-02-11T08:35:27;37.80;;;18.17;;
7289;SDS011;63176;52.678;13.250;2023-02-11T08:37:53;33.73;;;18.80;;
7289;SDS011;63176;52.678;13.250;2023-02-11T08:40:19;39.27;;;17.47;;
7289;SDS011;63176;52.678;13.250;2023-02-11T08:42:44;36.57;;;17.70;;
7289;SDS011;63176;52.678;13.250;2023-02-11T08:45:10;41.50;;;16.83;;
7289;SDS011;63176;52.678;13.250;2023-02-11T08:47:36;41.60;;;17.05;;
7289;SDS011;63176;52.678;13.250;2023-02-11T08:50:03;35.28;;;18.05;;
7289;SDS011;63176;52.678;13.250;2023-02-11T08:52:29;38.75;;;18.65;;
7289;SDS011;63176;52.678;13.250;2023-02-11T08:54:55;38.33;;;15.83;;
7289;SDS011;63176;52.678;13.250;2023-02-11T08:57:20;38.93;;;17.90;;
7289;SDS011;63176;52.678;13.250;2023-02-11T08:59:46;38.93;;;17.50;;
7289;SDS011;63176;52.678;13.250;2023-02-11T09:02:12;32.93;;;17.77;;
7289;SDS011;63176;52.678;13.250;2023-02-11T09:04:38;45.17;;;18.25;;
7289;SDS011;63176;52.678;13.250;2023-02-11T09:07:04;38.42;;;16.67;;
7289;SDS011;63176;52.678;13.250;2023-02-11T09:09:29;42.63;;;17.33;;
7289;SDS011;63176;52.678;13.250;2023-02-11T09:11:55;40.70;;;16.60;;
7289;SDS011;63176;52.678;13.250;2023-02-11T09:14:21;35.93;;;16.83;;
7289;SDS011;63176;52.678;13.250;2023-02-11T09:16:48;40.25;;;17.45;;
7289;SDS011;63176;52.678;13.250;2023-02-11T09:19:15;35.80;;;15.30;;
7289;SDS011;63176;52.678;13.250;2023-02-11T09:21:42;36.05;;;16.10;;
7289;SDS011;63176;52.678;13.250;2023-02-11T09:24:08;44.47;;;16.65;;
7289;SDS011;63176;52.678;13.250;2023-02-11T09:26:34;52.00;;;17.37;;
7289;SDS011;63176;52.678;13.250;2023-02-11T09:29:00;36.92;;;16.83;;
7289;SDS011;63176;52.678;13.250;2023-02-11T09:31:28;36.25;;;14.32;;
7289;SDS011;63176;52.678;13.250;2023-02-11T09:33:56;35.28;;;16.08;;
7289;SDS011;63176;52.678;13.250;2023-02-11T09:36:25;37.50;;;15.50;;
7289;SDS011;63176;52.678;13.250;2023-02-11T09:38:53;32.15;;;14.00;;
7289;SDS011;63176;52.678;13.250;2023-02-11T09:43:48;32.13;;;15.05;;
7289;SDS011;63176;52.678;13.250;2023-02-11T09:46:20;28.02;;;14.38;;
7289;SDS011;63176;52.678;13.250;2023-02-11T09:48:48;27.25;;;13.90;;
7289;SDS011;63176;52.678;13.250;2023-02-11T09:51:38;27.73;;;15.50;;
7289;SDS011;63176;52.678;13.250;2023-02-11T09:54:20;30.67;;;15.80;;
7289;SDS011;63176;52.678;13.250;2023-02-11T09:56:52;35.15;;;14.15;;
7289;SDS011;63176;52.678;13.250;2023-02-11T09:59:18;33.80;;;14.87;;
7289;SDS011;63176;52.678;13.250;2023-02-11T10:01:57;30.87;;;14.70;;
7289;SDS011;63176;52.678;13.250;2023-02-11T10:07:54;32.47;;;13.00;;
7289;SDS011;63176;52.678;13.250;2023-02-11T10:16:02;26.85;;;13.45;;
7289;SDS011;63176;52.678;13.250;2023-02-11T10:18:36;34.42;;;14.40;;
7289;SDS011;63176;52.678;13.250;2023-02-11T10:21:07;26.98;;;13.27;;
7289;SDS011;63176;52.678;13.250;2023-02-11T10:23:47;32.63;;;16.90;;
7289;SDS011;63176;52.678;13.250;2023-02-11T10:26:18;34.67;;;14.95;;
7289;SDS011;63176;52.678;13.250;2023-02-11T10:28:45;31.97;;;15.60;;
7289;SDS011;63176;52.678;13.250;2023-02-11T10:31:18;27.48;;;12.57;;
7289;SDS011;63176;52.678;13.250;2023-02-11T10:36:39;36.08;;;13.38;;
7289;SDS011;63176;52.678;13.250;2023-02-11T10:39:14;27.30;;;12.93;;
7289;SDS011;63176;52.678;13.250;2023-02-11T10:44:18;30.15;;;14.45;;
7289;SDS011;63176;52.678;13.250;2023-02-11T10:47:17;34.03;;;13.43;;
7289;SDS011;63176;52.678;13.250;2023-02-11T10:49:46;26.02;;;12.65;;
7289;SDS011;63176;52.678;13.250;2023-02-11T10:52:26;36.83;;;15.10;;
7289;SDS011;63176;52.678;13.250;2023-02-11T10:57:23;23.98;;;12.52;;
7289;SDS011;63176;52.678;13.250;2023-02-11T11:00:04;33.35;;;13.45;;
7289;SDS011;63176;52.678;13.250;2023-02-11T11:02:33;26.95;;;12.75;;
7289;SDS011;63176;52.678;13.250;2023-02-11T11:05:13;31.58;;;13.48;;
7289;SDS011;63176;52.678;13.250;2023-02-11T11:07:42;34.97;;;13.43;;
7289;SDS011;63176;52.678;13.250;2023-02-11T11:10:29;24.40;;;13.35;;
7289;SDS011;63176;52.678;13.250;2023-02-11T11:13:30;28.15;;;12.80;;
7289;SDS011;63176;52.678;13.250;2023-02-11T11:21:41;26.55;;;12.40;;
7289;SDS011;63176;52.678;13.250;2023-02-11T11:24:13;19.83;;;11.45;;
7289;SDS011;63176;52.678;13.250;2023-02-11T11:26:41;21.58;;;12.20;;
7289;SDS011;63176;52.678;13.250;2023-02-11T11:29:12;25.15;;;12.73;;
7289;SDS011;63176;52.678;13.250;2023-02-11T11:31:59;25.17;;;11.75;;
7289;SDS011;63176;52.678;13.250;2023-02-11T11:36:59;21.48;;;11.50;;
7289;SDS011;63176;52.678;13.250;2023-02-11T11:39:34;22.42;;;11.63;;
7289;SDS011;63176;52.678;13.250;2023-02-11T11:42:01;20.93;;;11.00;;
7289;SDS011;63176;52.678;13.250;2023-02-11T11:49:35;16.60;;;8.90;;
7289;SDS011;63176;52.678;13.250;2023-02-11T11:52:51;17.15;;;9.77;;
7289;SDS011;63176;52.678;13.250;2023-02-11T11:55:10;22.77;;;10.18;;
7289;SDS011;63176;52.678;13.250;2023-02-11T11:57:46;18.45;;;9.25;;
7289;SDS011;63176;52.678;13.250;2023-02-11T12:09:22;17.92;;;8.93;;
7289;SDS011;63176;52.678;13.250;2023-02-11T12:25:26;14.95;;;8.30;;
7289;SDS011;63176;52.678;13.250;2023-02-11T12:27:56;14.63;;;8.68;;
7289;SDS011;63176;52.678;13.250;2023-02-11T12:33:07;13.75;;;7.43;;
7289;SDS011;63176;52.678;13.250;2023-02-11T12:38:31;20.52;;;8.05;;
7289;SDS011;63176;52.678;13.250;2023-02-11T12:41:14;17.92;;;8.90;;
7289;SDS011;63176;52.678;13.250;2023-02-11T12:50:05;18.23;;;8.38;;
7289;SDS011;63176;52.678;13.250;2023-02-11T12:55:23;14.88;;;8.00;;
7289;SDS011;63176;52.678;13.250;2023-02-11T12:57:52;15.05;;;7.50;;
7289;SDS011;63176;52.678;13.250;2023-02-11T13:01:04;13.38;;;7.10;;
7289;SDS011;63176;52.678;13.250;2023-02-11T13:03:18;13.00;;;7.03;;
7289;SDS011;63176;52.678;13.250;2023-02-11T13:06:21;16.27;;;7.82;;
7289;SDS011;63176;52.678;13.250;2023-02-11T13:08:44;11.02;;;6.45;;
7289;SDS011;63176;52.678;13.250;2023-02-11T13:11:23;13.85;;;7.93;;
7289;SDS011;63176;52.678;13.250;2023-02-11T13:19:00;18.08;;;7.55;;
7289;SDS011;63176;52.678;13.250;2023-02-11T13:21:32;11.65;;;7.38;;
7289;SDS011;63176;52.678;13.250;2023-02-11T13:26:53;21.58;;;7.82;;
7289;SDS011;63176;52.678;13.250;2023-02-11T13:37:51;12.15;;;7.20;;
7289;SDS011;63176;52.678;13.250;2023-02-11T13:39:59;13.13;;;7.05;;
7289;SDS011;63176;52.678;13.250;2023-02-11T13:42:25;13.45;;;6.97;;
7289;SDS011;63176;52.678;13.250;2023-02-11T13:44:52;11.60;;;7.25;;
7289;SDS011;63176;52.678;13.250;2023-02-11T13:47:25;17.02;;;8.50;;
7289;SDS011;63176;52.678;13.250;2023-02-11T13:49:52;10.27;;;6.00;;
7289;SDS011;63176;52.678;13.250;2023-02-11T13:52:26;13.07;;;7.18;;
7289;SDS011;63176;52.678;13.250;2023-02-11T13:57:36;11.27;;;6.03;;
7289;SDS011;63176;52.678;13.250;2023-02-11T14:02:55;11.93;;;7.22;;
7289;SDS011;63176;52.678;13.250;2023-02-11T14:14:26;13.85;;;7.50;;
7289;SDS011;63176;52.678;13.250;2023-02-11T14:19:31;11.75;;;6.45;;
7289;SDS011;63176;52.678;13.250;2023-02-11T14:25:19;11.85;;;7.20;;
7289;SDS011;63176;52.678;13.250;2023-02-11T14:27:49;9.50;;;6.22;;
7289;SDS011;63176;52.678;13.250;2023-02-11T14:36:01;11.70;;;6.77;;
7289;SDS011;63176;52.678;13.250;2023-02-11T14:41:18;8.27;;;5.70;;
7289;SDS011;63176;52.678;13.250;2023-02-11T14:43:54;12.32;;;6.50;;
7289;SDS011;63176;52.678;13.250;2023-02-11T14:46:23;11.55;;;5.40;;
7289;SDS011;63176;52.678;13.250;2023-02-11T14:48:52;11.38;;;5.88;;
7289;SDS011;63176;52.678;13.250;2023-02-11T14:53:49;7.25;;;5.00;;
7289;SDS011;63176;52.678;13.250;2023-02-11T14:58:48;8.30;;;5.47;;
7289;SDS011;63176;52.678;13.250;2023-02-11T15:01:32;7.85;;;4.95;;
7289;SDS011;63176;52.678;13.250;2023-02-11T15:04:00;8.27;;;5.10;;
7289;SDS011;63176;52.678;13.250;2023-02-11T15:06:40;10.20;;;5.72;;
7289;SDS011;63176;52.678;13.250;2023-02-11T15:12:01;9.77;;;4.95;;
7289;SDS011;63176;52.678;13.250;2023-02-11T15:14:29;9.18;;;5.45;;
7289;SDS011;63176;52.678;13.250;2023-02-11T15:17:01;10.23;;;4.60;;
7289;SDS011;63176;52.678;13.250;2023-02-11T15:19:30;9.38;;;6.47;;
7289;SDS011;63176;52.678;13.250;2023-02-11T15:22:00;12.30;;;6.57;;
7289;SDS011;63176;52.678;13.250;2023-02-11T15:24:30;9.27;;;5.53;;
7289;SDS011;63176;52.678;13.250;2023-02-11T15:29:39;8.95;;;5.93;;
7289;SDS011;63176;52.678;13.250;2023-02-11T15:32:15;8.48;;;5.00;;
7289;SDS011;63176;52.678;13.250;2023-02-11T15:34:43;8.32;;;5.80;;
7289;SDS011;63176;52.678;13.250;2023-02-11T15:39:49;7.93;;;4.88;;
7289;SDS011;63176;52.678;13.250;2023-02-11T15:42:20;8.85;;;4.93;;
7289;SDS011;63176;52.678;13.250;2023-02-11T15:47:58;7.10;;;5.05;;
7289;SDS011;63176;52.678;13.250;2023-02-11T15:50:36;6.93;;;4.80;;
7289;SDS011;63176;52.678;13.250;2023-02-11T15:55:45;10.98;;;5.50;;
7289;SDS011;63176;52.678;13.250;2023-02-11T15:58:11;7.78;;;4.95;;
7289;SDS011;63176;52.678;13.250;2023-02-11T16:00:45;6.73;;;4.80;;
7289;SDS011;63176;52.678;13.250;2023-02-11T16:03:19;7.78;;;4.88;;
7289;SDS011;63176;52.678;13.250;2023-02-11T16:05:46;6.63;;;4.95;;
7289;SDS011;63176;52.678;13.250;2023-02-11T16:08:22;9.27;;;4.13;;
7289;SDS011;63176;52.678;13.250;2023-02-11T16:10:57;8.38;;;5.65;;
7289;SDS011;63176;52.678;13.250;2023-02-11T16:13:26;5.82;;;3.83;;
7289;SDS011;63176;52.678;13.250;2023-02-11T16:16:04;8.52;;;4.82;;
7289;SDS011;63176;52.678;13.250;2023-02-11T16:18:49;7.68;;;4.97;;
7289;SDS011;63176;52.678;13.250;2023-02-11T16:21:16;7.72;;;4.32;;
7289;SDS011;63176;52.678;13.250;2023-02-11T16:23:51;7.07;;;4.55;;
7289;SDS011;63176;52.678;13.250;2023-02-11T16:26:26;10.63;;;4.95;;
7289;SDS011;63176;52.678;13.250;2023-02-11T16:29:14;6.05;;;4.22;;
7289;SDS011;63176;52.678;13.250;2023-02-11T16:31:43;6.25;;;4.60;;
7289;SDS011;63176;52.678;13.250;2023-02-11T16:34:21;7.85;;;4.97;;
7289;SDS011;63176;52.678;13.250;2023-02-11T16:36:49;5.30;;;4.00;;
7289;SDS011;63176;52.678;13.250;2023-02-11T16:39:16;6.15;;;4.22;;
7289;SDS011;63176;52.678;13.250;2023-02-11T16:41:45;6.68;;;4.55;;
7289;SDS011;63176;52.678;13.250;2023-02-11T16:44:11;4.15;;;3.50;;
7289;SDS011;63176;52.678;13.250;2023-02-11T16:46:37;5.63;;;4.17;;
7289;SDS011;63176;52.678;13.250;2023-02-11T16:49:07;7.90;;;4.10;;
7289;SDS011;63176;52.678;13.250;2023-02-11T16:51:36;6.93;;;4.28;;
7289;SDS011;63176;52.678;13.250;2023-02-11T16:54:04;6.72;;;4.53;;
7289;SDS011;63176;52.678;13.250;2023-02-11T16:56:29;6.17;;;4.53;;
7289;SDS011;63176;52.678;13.250;2023-02-11T16:58:55;5.63;;;3.90;;
7289;SDS011;63176;52.678;13.250;2023-02-11T17:01:21;5.70;;;3.90;;
7289;SDS011;63176;52.678;13.250;2023-02-11T17:03:46;6.23;;;4.10;;
7289;SDS011;63176;52.678;13.250;2023-02-11T17:06:12;4.72;;;3.92;;
7289;SDS011;63176;52.678;13.250;2023-02-11T17:08:38;6.40;;;4.33;;
7289;SDS011;63176;52.678;13.250;2023-02-11T17:11:05;8.52;;;4.10;;
7289;SDS011;63176;52.678;13.250;2023-02-11T17:13:31;7.33;;;4.27;;
7289;SDS011;63176;52.678;13.250;2023-02-11T17:15:57;6.85;;;4.32;;
7289;SDS011;63176;52.678;13.250;2023-02-11T17:18:23;6.97;;;4.60;;
7289;SDS011;63176;52.678;13.250;2023-02-11T17:20:48;8.90;;;4.60;;
7289;SDS011;63176;52.678;13.250;2023-02-11T17:23:14;5.50;;;4.17;;
7289;SDS011;63176;52.678;13.250;2023-02-11T17:25:39;7.20;;;4.13;;
7289;SDS011;63176;52.678;13.250;2023-02-11T17:28:06;7.27;;;4.67;;